Time;durP1;ratioP1;P1;durP2;ratioP2;P2;SDS_P1;SDS_P2;PMS_P1;PMS_P2;Temp;Humidity;BMP_temperature;BMP_pressure;BME280_temperature;BME280_humidity;BME280_pressure;Samples;Min_cycle;Max_cycle;Signal;HPM_P1;HPM_P2
2022/11/08 00:02:32;;;;;;;2.23;2.13;;;14.00;99.90;;;;;;5094716;28;20473;-82
2022/11/08 00:15:56;;;;;;;3.73;1.97;;;13.80;99.90;;;;;;5088695;28;20496;-76
2022/11/08 00:18:24;;;;;;;4.07;2.33;;;13.80;99.90;;;;;;5073269;28;21251;-76
2022/11/08 00:20:51;;;;;;;3.30;2.50;;;13.80;99.90;;;;;;5075628;28;20477;-81
2022/11/08 00:23:19;;;;;;;2.30;2.10;;;13.80;99.90;;;;;;5075581;28;20547;-81
2022/11/08 00:25:52;;;;;;;3.67;2.60;;;13.90;99.90;;;;;;5075777;28;20545;-82
2022/11/08 00:28:19;;;;;;;3.77;2.30;;;13.90;99.90;;;;;;5075058;28;20477;-77
2022/11/08 00:30:46;;;;;;;3.50;2.43;;;13.80;99.90;;;;;;5074454;28;20517;-77
2022/11/08 00:33:13;;;;;;;2.38;2.00;;;13.80;99.90;;;;;;5077025;28;20783;-82
2022/11/08 00:35:42;;;;;;;4.00;2.60;;;13.80;99.90;;;;;;5074648;28;20224;-82
2022/11/08 00:38:09;;;;;;;3.43;2.10;;;13.80;99.90;;;;;;5075980;28;20540;-81
2022/11/08 00:40:37;;;;;;;7.07;3.00;;;13.80;99.90;;;;;;5072945;28;20497;-81
2022/11/08 00:43:04;;;;;;;2.83;2.53;;;13.80;99.90;;;;;;5072158;28;20786;-77
2022/11/08 00:45:31;;;;;;;5.93;2.33;;;13.80;99.90;;;;;;5072992;28;20553;-77
2022/11/08 00:47:58;;;;;;;3.70;1.92;;;13.80;99.90;;;;;;5074012;28;20512;-82
2022/11/08 00:50:25;;;;;;;3.50;1.77;;;13.80;99.90;;;;;;5073968;28;20316;-77
2022/11/08 00:52:53;;;;;;;3.77;2.20;;;13.70;99.90;;;;;;5071763;28;20999;-82
2022/11/08 00:55:20;;;;;;;4.63;3.03;;;13.80;99.90;;;;;;5073613;28;20276;-82
2022/11/08 00:57:47;;;;;;;7.07;2.77;;;13.70;99.90;;;;;;5073368;28;20561;-82
2022/11/08 01:00:15;;;;;;;4.50;2.10;;;13.70;99.90;;;;;;5075379;28;20470;-82
2022/11/08 01:02:42;;;;;;;4.50;2.60;;;13.60;99.90;;;;;;5074489;28;20297;-82
2022/11/08 01:05:09;;;;;;;3.23;2.93;;;13.60;99.90;;;;;;5074718;28;20960;-82
2022/11/08 01:07:37;;;;;;;6.45;2.33;;;13.60;99.90;;;;;;5074433;28;20475;-77
2022/11/08 01:10:07;;;;;;;2.00;1.70;;;13.60;99.90;;;;;;5073828;28;20274;-81
2022/11/08 01:12:34;;;;;;;4.43;2.60;;;13.60;99.90;;;;;;5073218;28;20902;-77
2022/11/08 01:15:04;;;;;;;2.77;2.40;;;13.60;99.90;;;;;;5072213;28;20516;-77
2022/11/08 01:17:32;;;;;;;3.37;3.00;;;13.60;99.90;;;;;;5073607;28;20477;-82
2022/11/08 01:19:59;;;;;;;8.10;2.67;;;13.60;99.90;;;;;;5072206;28;20470;-77
2022/11/08 01:22:26;;;;;;;4.00;2.23;;;13.60;99.90;;;;;;5073769;28;20474;-77
2022/11/08 01:24:53;;;;;;;2.60;2.17;;;13.60;99.90;;;;;;5073144;28;20532;-76
2022/11/08 01:27:23;;;;;;;5.73;2.30;;;13.60;99.90;;;;;;5073258;28;20504;-82
2022/11/08 01:29:50;;;;;;;3.43;2.20;;;13.60;99.90;;;;;;5072560;28;20467;-81
2022/11/08 01:32:17;;;;;;;2.57;2.10;;;13.60;99.90;;;;;;5072571;28;20478;-82
2022/11/08 01:34:44;;;;;;;4.30;1.90;;;13.60;99.90;;;;;;5072482;28;20471;-76
2022/11/08 01:37:11;;;;;;;4.77;2.63;;;13.60;99.90;;;;;;5059488;28;20475;-81
2022/11/08 01:39:39;;;;;;;7.17;2.93;;;13.50;99.90;;;;;;5059174;28;20466;-76
2022/11/08 01:42:06;;;;;;;5.70;3.90;;;13.50;99.90;;;;;;5072495;28;20494;-81
2022/11/08 01:44:49;;;;;;;7.83;4.57;;;13.50;99.90;;;;;;5073192;28;20466;-76
2022/11/08 01:47:17;;;;;;;7.27;2.90;;;13.40;99.90;;;;;;5071637;28;20466;-78
2022/11/08 01:49:46;;;;;;;6.10;2.50;;;13.40;99.90;;;;;;5073174;28;20515;-81
2022/11/08 01:52:28;;;;;;;4.10;2.20;;;13.40;99.90;;;;;;5071924;28;20462;-76
2022/11/08 01:55:00;;;;;;;3.87;2.30;;;13.40;99.90;;;;;;5071897;28;20536;-76
2022/11/08 01:57:33;;;;;;;5.35;2.33;;;13.40;99.90;;;;;;5072866;28;20839;-76
2022/11/08 02:00:05;;;;;;;5.17;2.30;;;13.40;99.90;;;;;;5071094;28;20674;-76
2022/11/08 02:02:34;;;;;;;4.65;2.50;;;13.40;99.90;;;;;;5072662;28;21042;-81
2022/11/08 02:05:01;;;;;;;5.38;2.53;;;13.40;99.90;;;;;;5064084;28;20706;-76
2022/11/08 02:07:31;;;;;;;3.85;2.42;;;13.40;99.90;;;;;;5076827;28;20224;-76
2022/11/08 02:09:58;;;;;;;2.80;2.47;;;13.40;99.90;;;;;;5077381;28;20226;-76
2022/11/08 02:12:27;;;;;;;4.85;2.35;;;13.40;99.90;;;;;;5077069;28;20473;-76
2022/11/08 02:14:54;;;;;;;5.07;2.90;;;13.40;99.90;;;;;;5077176;28;20228;-77
2022/11/08 02:17:22;;;;;;;5.50;2.43;;;13.40;99.90;;;;;;5076464;28;20458;-77
2022/11/08 02:19:51;;;;;;;4.40;2.23;;;13.50;99.90;;;;;;5079479;28;20469;-82
2022/11/08 02:22:25;;;;;;;5.27;2.50;;;13.50;99.90;;;;;;5077445;28;20825;-82
2022/11/08 02:24:54;;;;;;;2.70;2.50;;;13.50;99.90;;;;;;5077702;28;20979;-82
2022/11/08 02:27:21;;;;;;;3.67;2.20;;;13.50;99.90;;;;;;5077108;28;20804;-82
2022/11/08 02:29:52;;;;;;;3.57;2.47;;;13.50;99.90;;;;;;5077363;28;20472;-82
2022/11/08 02:32:19;;;;;;;5.93;2.67;;;13.50;99.90;;;;;;5075973;28;20553;-77
2022/11/08 02:34:49;;;;;;;2.50;2.30;;;13.50;99.90;;;;;;5075683;28;20231;-76
2022/11/08 02:37:18;;;;;;;4.60;2.37;;;13.50;99.90;;;;;;5075463;28;20549;-76
2022/11/08 02:39:46;;;;;;;2.50;2.30;;;13.50;99.90;;;;;;5076300;28;20549;-77
2022/11/08 02:42:17;;;;;;;3.10;2.50;;;13.50;99.90;;;;;;5075692;28;20587;-82
2022/11/08 02:44:44;;;;;;;5.00;2.23;;;13.60;99.90;;;;;;5066993;28;20485;-76
2022/11/08 02:47:11;;;;;;;5.93;2.50;;;13.50;99.90;;;;;;5075088;28;20470;-76
2022/11/08 02:49:38;;;;;;;3.13;2.40;;;13.60;99.90;;;;;;5076295;28;20552;-76
2022/11/08 02:52:06;;;;;;;2.90;2.42;;;13.60;99.90;;;;;;5075470;28;20543;-82
2022/11/08 02:54:33;;;;;;;3.63;2.20;;;13.50;99.90;;;;;;5077172;28;20240;-77
2022/11/08 02:57:00;;;;;;;2.77;2.00;;;13.50;99.90;;;;;;5075882;28;20289;-77
2022/11/08 02:59:29;;;;;;;6.10;2.65;;;13.50;99.90;;;;;;5075744;28;20473;-77
2022/11/08 03:01:56;;;;;;;4.27;2.27;;;13.50;99.90;;;;;;5076733;28;20224;-82
2022/11/08 03:04:23;;;;;;;5.00;2.53;;;13.50;99.90;;;;;;5078176;28;20477;-77
2022/11/08 03:06:51;;;;;;;4.77;2.20;;;13.50;99.90;;;;;;5075768;28;20498;-77
2022/11/08 03:09:18;;;;;;;6.90;2.33;;;13.50;99.90;;;;;;5076659;28;20477;-77
2022/11/08 03:11:45;;;;;;;3.72;2.20;;;13.50;99.90;;;;;;5077377;28;20498;-77
2022/11/08 03:14:13;;;;;;;7.53;2.20;;;13.50;99.90;;;;;;5076300;28;20239;-83
2022/11/08 03:16:41;;;;;;;4.60;2.75;;;13.50;99.90;;;;;;5075704;28;20227;-82
2022/11/08 03:19:08;;;;;;;5.13;2.53;;;13.50;99.90;;;;;;5076752;28;20228;-77
2022/11/08 03:21:36;;;;;;;3.42;2.42;;;13.40;99.90;;;;;;5075787;28;20289;-77
2022/11/08 03:24:03;;;;;;;3.38;2.05;;;13.40;99.90;;;;;;5077995;28;21075;-82
2022/11/08 03:26:40;;;;;;;2.40;2.10;;;13.40;99.90;;;;;;5063542;28;20732;-77
2022/11/08 03:29:07;;;;;;;3.50;2.53;;;13.50;99.90;;;;;;5064605;28;20465;-77
2022/11/08 03:31:34;;;;;;;8.23;3.20;;;13.50;99.90;;;;;;5074780;28;20465;-75
2022/11/08 03:34:03;;;;;;;3.40;2.47;;;13.50;99.90;;;;;;5075115;28;20474;-75
2022/11/08 03:36:30;;;;;;;3.07;2.60;;;13.40;99.90;;;;;;5075253;28;20474;-76
2022/11/08 03:38:57;;;;;;;3.88;3.00;;;13.40;99.90;;;;;;5075380;28;20470;-76
2022/11/08 03:41:24;;;;;;;8.87;2.50;;;13.40;99.90;;;;;;5075171;28;20220;-81
2022/11/08 03:43:51;;;;;;;4.60;2.27;;;13.40;99.90;;;;;;5077323;28;20494;-81
2022/11/08 03:46:18;;;;;;;3.63;3.10;;;13.50;99.90;;;;;;5076106;28;20497;-76
2022/11/08 03:48:45;;;;;;;3.03;2.25;;;13.50;99.90;;;;;;5075420;28;20477;-76
2022/11/08 03:51:13;;;;;;;6.60;2.20;;;13.50;99.90;;;;;;5075096;28;20303;-76
2022/11/08 03:53:40;;;;;;;3.70;3.00;;;13.50;99.90;;;;;;5074873;28;20469;-76
2022/11/08 03:56:08;;;;;;;4.73;2.00;;;13.50;99.90;;;;;;5075779;28;20543;-77
2022/11/08 03:58:36;;;;;;;4.80;3.27;;;13.40;99.90;;;;;;5074387;28;20505;-77
2022/11/08 04:01:05;;;;;;;5.50;2.20;;;13.40;99.90;;;;;;5075861;28;20550;-82
2022/11/08 04:03:34;;;;;;;2.37;2.10;;;13.40;99.90;;;;;;5075436;28;20243;-77
2022/11/08 04:06:02;;;;;;;3.30;2.47;;;13.40;99.90;;;;;;5076742;28;20473;-82
2022/11/08 04:08:30;;;;;;;3.85;2.50;;;13.40;99.90;;;;;;5075445;28;20470;-77
2022/11/08 04:15:13;;;;;;;2.45;2.00;;;13.40;99.90;;;;;;5079527;28;20254;-82
2022/11/08 04:16:31;;;;;;;3.17;2.20;;;13.30;99.90;;;;;;5075278;28;20688;-77
2022/11/08 04:21:52;;;;;;;5.90;2.75;;;13.30;99.90;;;;;;5085013;28;20282;-77
2022/11/08 04:24:22;;;;;;;3.40;2.53;;;13.30;99.90;;;;;;5073751;28;20220;-77
2022/11/08 04:26:48;;;;;;;3.83;2.53;;;13.30;99.90;;;;;;5086075;28;20567;-82
2022/11/08 04:29:30;;;;;;;3.38;2.80;;;13.30;99.90;;;;;;5084563;28;20503;-77
2022/11/08 04:31:58;;;;;;;3.53;2.55;;;13.20;99.90;;;;;;5080144;28;20227;-82
2022/11/08 04:34:26;;;;;;;3.88;2.70;;;13.20;99.90;;;;;;5088834;28;20220;-82
2022/11/08 04:36:53;;;;;;;5.22;3.17;;;13.20;99.90;;;;;;5087961;28;20330;-82
2022/11/08 04:39:24;;;;;;;3.65;2.40;;;13.20;99.90;;;;;;5076823;28;20219;-78
2022/11/08 04:41:52;;;;;;;6.53;2.83;;;13.20;99.90;;;;;;5073945;28;20276;-81
2022/11/08 04:44:19;;;;;;;4.78;2.83;;;13.10;99.90;;;;;;5054631;28;20231;-76
2022/11/08 04:46:46;;;;;;;5.13;2.80;;;13.10;99.90;;;;;;5073199;28;20232;-82
2022/11/08 04:49:13;;;;;;;6.50;2.75;;;13.10;99.90;;;;;;5077575;28;20462;-83
2022/11/08 04:51:40;;;;;;;6.70;2.83;;;13.10;99.90;;;;;;5075016;28;20281;-81
2022/11/08 04:54:07;;;;;;;5.07;3.00;;;13.10;99.90;;;;;;5075464;28;20226;-82
2022/11/08 04:56:35;;;;;;;3.83;2.80;;;13.10;99.90;;;;;;5075077;28;20227;-82
2022/11/08 04:59:02;;;;;;;2.92;2.42;;;13.10;99.90;;;;;;5075780;28;20255;-82
2022/11/08 05:01:31;;;;;;;3.60;2.53;;;13.10;99.90;;;;;;5074689;28;20613;-82
2022/11/08 05:03:58;;;;;;;4.68;3.00;;;13.10;99.90;;;;;;5072004;28;20247;-77
2022/11/08 05:06:27;;;;;;;6.85;3.40;;;13.10;99.90;;;;;;5073432;28;20305;-77
2022/11/08 05:08:56;;;;;;;4.72;3.47;;;13.00;99.90;;;;;;5072451;28;20319;-81
2022/11/08 05:11:25;;;;;;;5.57;3.03;;;13.00;99.90;;;;;;5075003;28;20681;-77
2022/11/08 05:13:54;;;;;;;5.15;3.10;;;13.00;99.90;;;;;;5072615;28;20585;-82
2022/11/08 05:16:23;;;;;;;5.95;2.88;;;13.00;99.90;;;;;;5074617;28;20705;-82
2022/11/08 05:18:50;;;;;;;9.25;3.47;;;12.90;99.90;;;;;;5074028;28;20729;-82
2022/11/08 05:24:01;;;;;;;6.25;3.45;;;12.90;99.90;;;;;;5028668;28;20618;-77
2022/11/08 05:26:29;;;;;;;3.22;2.70;;;12.90;99.90;;;;;;5073041;28;20212;-78
2022/11/08 05:28:57;;;;;;;3.70;3.00;;;12.90;99.90;;;;;;5074177;28;20286;-80
2022/11/08 05:31:24;;;;;;;4.65;2.83;;;12.90;99.90;;;;;;5074666;28;20224;-83
2022/11/08 05:33:51;;;;;;;5.65;3.33;;;12.80;99.90;;;;;;5073540;28;20231;-83
2022/11/08 05:36:19;;;;;;;3.63;3.28;;;12.90;99.90;;;;;;5073696;28;20318;-77
2022/11/08 05:38:46;;;;;;;5.90;3.47;;;12.80;99.90;;;;;;5073145;28;20243;-82
2022/11/08 05:41:15;;;;;;;6.15;3.63;;;12.80;99.90;;;;;;5073006;28;20269;-83
2022/11/08 05:43:45;;;;;;;9.93;3.55;;;12.80;99.90;;;;;;5073899;28;20238;-77
2022/11/08 05:46:14;;;;;;;3.80;3.38;;;12.80;99.90;;;;;;5073206;28;20227;-77
2022/11/08 05:48:42;;;;;;;3.70;3.40;;;12.80;99.90;;;;;;5073745;28;20223;-77
2022/11/08 05:51:10;;;;;;;8.63;4.70;;;12.70;99.90;;;;;;5073173;28;20220;-77
2022/11/08 05:53:38;;;;;;;4.60;3.47;;;12.70;99.90;;;;;;5073426;28;20246;-77
2022/11/08 05:56:05;;;;;;;3.28;2.88;;;12.70;99.90;;;;;;5060484;28;20252;-77
2022/11/08 05:58:34;;;;;;;5.32;3.20;;;12.70;99.90;;;;;;5058502;28;20670;-82
2022/11/08 06:01:03;;;;;;;6.18;3.30;;;12.70;99.90;;;;;;5074502;28;20224;-82
2022/11/08 06:03:32;;;;;;;9.00;4.30;;;12.70;99.90;;;;;;5077290;28;20321;-77
2022/11/08 06:06:03;;;;;;;5.07;3.45;;;12.70;99.90;;;;;;5072741;28;20549;-77
2022/11/08 06:08:30;;;;;;;4.55;3.97;;;12.70;99.90;;;;;;5073197;28;20220;-77
2022/11/08 06:11:02;;;;;;;6.30;5.03;;;12.70;99.90;;;;;;5071549;28;20306;-77
2022/11/08 06:13:29;;;;;;;7.80;5.93;;;12.70;99.90;;;;;;5073692;28;20227;-83
2022/11/08 06:15:59;;;;;;;9.75;7.88;;;12.60;99.90;;;;;;5073524;28;20307;-82
2022/11/08 06:18:31;;;;;;;9.73;6.35;;;12.70;99.90;;;;;;5064495;28;20639;-82
2022/11/08 06:21:46;;;;;;;15.95;8.98;;;12.60;99.90;;;;;;5051718;28;20625;-77
2022/11/08 06:24:26;;;;;;;15.57;12.40;;;12.50;99.90;;;;;;5063395;28;20216;-81
2022/11/08 06:26:53;;;;;;;13.20;7.55;;;12.60;99.90;;;;;;5073770;28;20231;-76
2022/11/08 06:29:25;;;;;;;13.75;10.18;;;12.50;99.90;;;;;;5071544;28;20230;-78
2022/11/08 06:31:52;;;;;;;12.95;9.75;;;12.50;99.90;;;;;;5073969;28;20223;-82
2022/11/08 06:34:20;;;;;;;12.75;8.82;;;12.50;99.90;;;;;;5073207;28;20230;-81
2022/11/08 06:36:49;;;;;;;11.23;7.38;;;12.50;99.90;;;;;;5072993;28;20266;-82
2022/11/08 06:39:17;;;;;;;10.18;6.38;;;12.50;99.90;;;;;;5072326;28;20232;-83
2022/11/08 06:41:45;;;;;;;7.93;5.80;;;12.50;99.90;;;;;;5074081;28;20225;-82
2022/11/08 06:44:12;;;;;;;5.93;4.50;;;12.50;99.90;;;;;;5072282;28;20631;-82
2022/11/08 06:46:42;;;;;;;9.02;4.53;;;12.40;99.90;;;;;;5073002;28;20223;-81
2022/11/08 06:49:09;;;;;;;9.07;7.03;;;12.40;99.90;;;;;;5071580;28;20226;-78
2022/11/08 06:51:36;;;;;;;7.50;3.35;;;12.40;99.90;;;;;;5073071;28;20246;-77
2022/11/08 06:54:05;;;;;;;8.30;4.53;;;12.40;99.90;;;;;;5075610;28;20616;-77
2022/11/08 06:56:32;;;;;;;8.30;4.75;;;12.30;99.90;;;;;;5076193;28;20224;-83
2022/11/08 06:59:01;;;;;;;12.20;4.82;;;12.30;99.90;;;;;;5076190;28;20287;-76
2022/11/08 07:01:28;;;;;;;3.78;3.47;;;12.30;99.90;;;;;;5075634;28;20223;-76
2022/11/08 07:03:55;;;;;;;8.63;6.55;;;12.30;99.90;;;;;;5076012;28;20328;-76
2022/11/08 07:06:23;;;;;;;8.98;5.68;;;12.30;99.90;;;;;;5075500;28;20232;-76
2022/11/08 07:08:50;;;;;;;6.97;5.60;;;12.30;99.90;;;;;;5076305;28;20316;-76
2022/11/08 07:11:19;;;;;;;8.85;4.95;;;12.30;99.90;;;;;;5075040;28;20228;-76
2022/11/08 07:13:47;;;;;;;5.40;3.67;;;12.30;99.90;;;;;;5075424;28;20247;-82
2022/11/08 07:16:15;;;;;;;6.82;5.40;;;12.30;99.90;;;;;;5075284;28;20238;-76
2022/11/08 07:18:42;;;;;;;7.25;4.03;;;12.40;99.90;;;;;;5075777;28;20286;-82
2022/11/08 07:21:09;;;;;;;6.07;3.22;;;12.30;99.90;;;;;;5076054;28;20736;-82
2022/11/08 07:23:36;;;;;;;5.47;4.10;;;12.30;99.90;;;;;;5076330;28;20224;-82
2022/11/08 07:26:07;;;;;;;7.70;3.60;;;12.30;99.90;;;;;;5075694;28;20228;-82
2022/11/08 07:28:34;;;;;;;3.83;3.08;;;12.40;99.90;;;;;;5075786;28;20239;-82
2022/11/08 07:31:03;;;;;;;10.18;4.25;;;12.40;99.90;;;;;;5075929;28;20664;-82
2022/11/08 07:33:34;;;;;;;5.50;4.50;;;12.40;99.90;;;;;;5065521;28;20305;-81
2022/11/08 07:36:01;;;;;;;8.57;4.90;;;12.50;99.90;;;;;;5075037;28;20228;-81
2022/11/08 07:38:28;;;;;;;9.88;5.60;;;12.40;99.90;;;;;;5074053;28;20235;-77
2022/11/08 07:40:56;;;;;;;8.10;5.53;;;12.40;99.90;;;;;;5075338;28;20232;-76
2022/11/08 07:43:24;;;;;;;9.93;8.45;;;12.40;99.90;;;;;;5075121;28;20232;-76
2022/11/08 07:45:55;;;;;;;5.93;5.03;;;12.50;99.90;;;;;;5075578;28;20319;-76
2022/11/08 07:48:22;;;;;;;11.05;7.57;;;12.50;99.90;;;;;;5074193;28;20223;-76
2022/11/08 07:50:51;;;;;;;9.77;5.68;;;12.50;99.90;;;;;;5075398;28;20235;-76
2022/11/08 07:53:18;;;;;;;9.15;5.22;;;12.50;99.90;;;;;;5074521;28;20258;-76
2022/11/08 07:55:47;;;;;;;5.97;5.10;;;12.60;99.90;;;;;;5076017;28;20224;-82
2022/11/08 07:58:15;;;;;;;6.13;3.90;;;12.60;99.90;;;;;;5075589;28;20220;-76
2022/11/08 08:00:43;;;;;;;6.07;4.70;;;12.70;99.90;;;;;;5075096;28;20231;-82
2022/11/08 08:03:12;;;;;;;4.68;3.85;;;12.70;99.90;;;;;;5075028;28;20323;-76
2022/11/08 08:05:41;;;;;;;5.43;4.90;;;12.70;99.90;;;;;;5073776;28;20224;-76
2022/11/08 08:08:11;;;;;;;9.25;4.80;;;12.80;99.90;;;;;;5074314;28;20693;-76
2022/11/08 08:10:39;;;;;;;6.95;4.20;;;12.80;99.90;;;;;;5074219;28;20232;-76
2022/11/08 08:13:06;;;;;;;7.28;4.13;;;12.80;99.90;;;;;;5075461;28;20228;-81
2022/11/08 08:15:33;;;;;;;4.55;3.65;;;12.80;99.90;;;;;;5075102;28;20251;-81
2022/11/08 08:18:02;;;;;;;6.18;4.22;;;12.90;99.90;;;;;;5076673;28;20235;-82
2022/11/08 08:20:29;;;;;;;10.48;5.70;;;12.90;99.90;;;;;;5075067;28;20739;-76
2022/11/08 08:22:56;;;;;;;6.03;4.15;;;12.90;99.90;;;;;;5076859;28;20228;-82
2022/11/08 08:25:26;;;;;;;9.98;3.95;;;13.00;99.90;;;;;;5076149;28;20315;-77
2022/11/08 08:27:55;;;;;;;6.85;3.55;;;13.00;99.90;;;;;;5077525;28;20749;-76
2022/11/08 08:30:23;;;;;;;5.13;3.20;;;13.10;99.90;;;;;;5075859;28;20224;-82
2022/11/08 08:32:51;;;;;;;4.97;3.55;;;13.10;99.90;;;;;;5082016;28;20224;-81
2022/11/08 08:35:18;;;;;;;2.85;2.65;;;13.20;99.90;;;;;;5077570;28;20311;-76
2022/11/08 08:37:45;;;;;;;5.00;3.53;;;13.20;99.90;;;;;;5074274;28;20297;-82
2022/11/08 08:40:12;;;;;;;11.20;3.80;;;13.20;99.90;;;;;;5074890;28;20473;-82
2022/11/08 08:42:44;;;;;;;3.40;3.03;;;13.30;99.90;;;;;;5073771;28;20232;-81
2022/11/08 08:45:11;;;;;;;8.20;3.80;;;13.30;99.90;;;;;;5075088;28;20462;-82
2022/11/08 08:47:38;;;;;;;5.32;3.20;;;13.30;99.90;;;;;;5073439;28;20224;-76
2022/11/08 08:50:07;;;;;;;3.33;2.60;;;13.40;99.90;;;;;;5065128;28;20258;-76
2022/11/08 08:52:34;;;;;;;8.03;3.90;;;13.40;99.90;;;;;;5051835;28;20240;-76
2022/11/08 08:55:01;;;;;;;5.93;3.15;;;13.50;99.90;;;;;;5066946;28;20458;-78
2022/11/08 08:57:28;;;;;;;4.93;3.47;;;13.50;99.90;;;;;;5073002;28;20249;-78
2022/11/08 08:59:56;;;;;;;7.13;3.40;;;13.60;99.90;;;;;;5073655;28;20235;-75
2022/11/08 09:02:27;;;;;;;8.53;4.20;;;13.60;99.90;;;;;;5073850;28;20470;-76
2022/11/08 09:04:54;;;;;;;7.53;3.37;;;13.70;99.90;;;;;;5073065;28;20462;-76
2022/11/08 09:07:21;;;;;;;6.32;3.20;;;13.80;99.90;;;;;;5074124;28;20470;-82
2022/11/08 09:09:48;;;;;;;9.03;3.50;;;13.80;99.90;;;;;;5073618;28;20238;-82
2022/11/08 09:12:18;;;;;;;6.67;3.20;;;13.90;99.90;;;;;;5073432;28;20482;-82
2022/11/08 09:14:45;;;;;;;4.43;3.20;;;13.90;99.90;;;;;;5072737;28;20509;-77
2022/11/08 09:17:13;;;;;;;7.17;3.60;;;14.00;99.90;;;;;;5074360;28;20466;-82
2022/11/08 09:19:40;;;;;;;4.10;3.10;;;14.00;99.90;;;;;;5074247;28;20852;-82
2022/11/08 09:22:07;;;;;;;3.40;3.10;;;14.00;99.90;;;;;;5074455;28;20475;-77
2022/11/08 09:24:34;;;;;;;6.33;4.60;;;14.00;99.90;;;;;;5073480;28;20882;-82
2022/11/08 09:27:02;;;;;;;10.53;5.43;;;14.10;99.90;;;;;;5073301;28;20524;-77
2022/11/08 09:29:29;;;;;;;6.80;5.63;;;14.10;99.90;;;;;;5073027;28;20466;-81
2022/11/08 09:31:56;;;;;;;8.57;5.77;;;14.20;99.90;;;;;;5073017;28;20482;-77
2022/11/08 09:34:25;;;;;;;9.00;5.40;;;14.20;99.90;;;;;;5073465;28;20470;-83
2022/11/08 09:36:53;;;;;;;8.43;7.13;;;14.30;99.90;;;;;;5073575;28;20493;-82
2022/11/08 09:39:20;;;;;;;9.50;7.10;;;14.40;99.90;;;;;;5073810;28;20520;-77
2022/11/08 09:42:15;;;;;;;8.53;6.10;;;14.40;99.90;;;;;;5072567;28;20470;-77
2022/11/08 09:45:09;;;;;;;5.20;3.70;;;14.50;99.90;;;;;;5073671;28;20549;-82
2022/11/08 09:47:41;;;;;;;6.83;4.40;;;14.60;99.90;;;;;;5073104;28;20477;-82
2022/11/08 09:50:19;;;;;;;7.27;5.50;;;14.60;99.90;;;;;;5073457;28;20493;-82
2022/11/08 09:52:51;;;;;;;4.93;2.90;;;14.70;99.90;;;;;;5072472;28;20547;-82
2022/11/08 09:55:27;;;;;;;7.43;2.87;;;14.70;99.90;;;;;;5075782;28;20496;-82
2022/11/08 09:58:21;;;;;;;6.33;3.27;;;14.70;99.90;;;;;;5072633;28;20492;-75
2022/11/08 10:00:52;;;;;;;6.30;2.57;;;14.80;99.90;;;;;;5073371;28;20607;-82
2022/11/08 10:03:22;;;;;;;6.20;2.90;;;14.80;99.90;;;;;;5072842;28;20463;-82
2022/11/08 10:06:14;;;;;;;6.10;3.10;;;14.80;99.90;;;;;;5073236;28;20476;-82
2022/11/08 10:08:50;;;;;;;3.23;2.60;;;14.90;99.90;;;;;;5072604;28;20489;-77
2022/11/08 10:11:27;;;;;;;3.50;2.20;;;14.90;99.90;;;;;;5072604;28;20497;-77
2022/11/08 10:14:07;;;;;;;3.90;3.13;;;15.00;99.90;;;;;;5072001;28;20496;-76
2022/11/08 10:16:40;;;;;;;4.90;2.50;;;15.10;99.90;;;;;;5073704;28;20478;-77
2022/11/08 10:19:34;;;;;;;4.70;3.07;;;15.20;99.90;;;;;;5074164;28;20450;-77
2022/11/08 10:22:18;;;;;;;3.30;2.60;;;15.20;99.90;;;;;;5072638;28;20596;-76
2022/11/08 10:24:54;;;;;;;2.60;2.40;;;15.30;99.90;;;;;;5077546;28;20466;-83
2022/11/08 10:27:29;;;;;;;5.00;2.23;;;15.30;99.90;;;;;;5078651;28;20460;-76
2022/11/08 10:30:02;;;;;;;2.57;2.20;;;15.30;99.90;;;;;;5076023;28;20470;-76
2022/11/08 10:32:33;;;;;;;3.87;2.73;;;15.40;99.90;;;;;;5076048;28;20502;-77
2022/11/08 10:35:08;;;;;;;8.87;6.70;;;15.40;99.90;;;;;;5076134;28;20809;-76
2022/11/08 10:37:39;;;;;;;8.90;5.70;;;15.40;99.90;;;;;;5076605;28;20827;-77
2022/11/08 10:40:17;;;;;;;6.93;5.63;;;15.50;99.90;;;;;;5075741;28;20450;-77
2022/11/08 10:42:47;;;;;;;6.67;4.50;;;15.50;99.90;;;;;;5077942;28;20534;-77
2022/11/08 10:45:14;;;;;;;6.10;4.47;;;15.60;99.90;;;;;;5075507;28;20470;-75
2022/11/08 10:47:41;;;;;;;7.70;2.30;;;15.60;99.90;;;;;;5075943;28;20531;-76
2022/11/08 10:50:14;;;;;;;8.23;4.37;;;15.60;99.90;;;;;;5075901;28;20463;-77
2022/11/08 10:52:48;;;;;;;2.90;2.00;;;15.60;99.90;;;;;;5078379;28;20481;-84
2022/11/08 10:55:37;;;;;;;6.43;2.60;;;15.70;99.90;;;;;;5079034;28;20496;-83
2022/11/08 10:58:05;;;;;;;3.27;1.80;;;15.70;99.90;;;;;;5090187;28;20493;-83
2022/11/08 11:00:33;;;;;;;2.10;1.90;;;15.80;99.90;;;;;;5090112;28;20455;-80
2022/11/08 11:03:02;;;;;;;3.20;1.87;;;15.80;99.90;;;;;;5090358;28;20534;-80
2022/11/08 11:05:43;;;;;;;2.10;1.90;;;15.90;99.90;;;;;;5086521;28;20553;-76
2022/11/08 11:08:17;;;;;;;3.07;2.40;;;15.90;99.90;;;;;;5075542;28;20977;-77
2022/11/08 11:10:46;;;;;;;4.53;3.67;;;16.00;99.90;;;;;;5075562;28;20465;-76
2022/11/08 11:13:15;;;;;;;6.63;3.17;;;16.00;99.90;;;;;;5075124;28;20546;-76
2022/11/08 11:15:47;;;;;;;3.33;3.03;;;16.10;99.90;;;;;;5075476;28;20471;-77
2022/11/08 11:18:23;;;;;;;6.03;3.40;;;16.10;99.90;;;;;;5075029;28;20455;-77
2022/11/08 11:20:59;;;;;;;4.70;2.73;;;16.10;99.90;;;;;;5076516;28;20533;-81
2022/11/08 11:23:35;;;;;;;6.50;2.33;;;16.10;99.90;;;;;;5093281;28;20472;-82
2022/11/08 11:26:03;;;;;;;4.03;2.00;;;16.10;99.90;;;;;;5078234;28;20478;-76
2022/11/08 11:28:30;;;;;;;5.27;2.10;;;16.10;99.90;;;;;;5077376;28;20981;-77
2022/11/08 11:31:01;;;;;;;4.37;2.27;;;16.10;99.90;;;;;;5075229;28;20476;-76
2022/11/08 11:33:29;;;;;;;3.90;2.13;;;16.10;99.90;;;;;;5075587;28;20498;-76
2022/11/08 11:36:02;;;;;;;2.20;2.00;;;16.10;99.90;;;;;;5075488;28;20502;-77
2022/11/08 11:38:39;;;;;;;4.90;2.47;;;16.10;99.90;;;;;;5074484;28;20475;-77
2022/11/08 11:41:14;;;;;;;3.40;2.40;;;16.10;99.90;;;;;;5074412;28;20466;-78
2022/11/08 11:43:47;;;;;;;2.37;1.70;;;16.10;99.90;;;;;;5075781;28;20490;-83
2022/11/08 11:46:20;;;;;;;2.97;1.80;;;16.20;99.90;;;;;;5075434;28;20843;-83
2022/11/08 11:48:50;;;;;;;4.13;1.97;;;16.20;99.90;;;;;;5075782;28;20471;-77
2022/11/08 11:51:21;;;;;;;4.93;3.00;;;16.20;99.90;;;;;;5074596;28;21026;-77
2022/11/08 11:53:53;;;;;;;2.50;2.20;;;16.20;99.90;;;;;;5075274;28;21022;-77
2022/11/08 11:56:42;;;;;;;2.00;1.53;;;16.30;99.90;;;;;;5082069;28;20479;-77
2022/11/08 11:59:49;;;;;;;2.67;2.10;;;16.30;99.90;;;;;;5095655;28;20506;-83
2022/11/08 12:02:46;;;;;;;4.20;2.37;;;16.30;99.90;;;;;;5087399;28;20957;-83
2022/11/08 12:05:27;;;;;;;4.20;2.20;;;16.30;99.90;;;;;;5088850;28;20462;-82
2022/11/08 12:08:07;;;;;;;4.33;2.13;;;16.30;99.90;;;;;;5082724;28;20466;-83
2022/11/08 12:10:55;;;;;;;3.77;2.40;;;16.40;99.90;;;;;;5081124;28;20467;-83
2022/11/08 12:13:29;;;;;;;3.70;2.67;;;16.40;99.90;;;;;;5101807;28;20552;-83
2022/11/08 12:16:03;;;;;;;2.93;2.63;;;16.50;99.90;;;;;;5082039;28;20916;-82
2022/11/08 12:18:49;;;;;;;6.67;5.90;;;16.50;99.90;;;;;;5082361;28;20492;-82
2022/11/08 12:21:29;;;;;;;4.17;3.17;;;16.50;99.90;;;;;;5084272;28;20854;-81
2022/11/08 12:24:19;;;;;;;3.40;3.10;;;16.50;99.90;;;;;;5087145;28;20470;-83
2022/11/08 12:26:53;;;;;;;5.50;4.47;;;16.60;99.90;;;;;;5088109;28;20518;-82
2022/11/08 12:29:27;;;;;;;5.30;4.60;;;16.50;99.90;;;;;;5077887;28;20504;-76
2022/11/08 12:32:11;;;;;;;4.50;3.37;;;16.60;99.90;;;;;;5086897;28;20499;-82
2022/11/08 12:34:55;;;;;;;5.20;2.37;;;16.60;99.90;;;;;;5087813;28;20502;-82
2022/11/08 12:37:36;;;;;;;4.30;1.83;;;16.60;99.90;;;;;;5082721;28;20466;-83
2022/11/08 12:40:14;;;;;;;2.17;1.50;;;16.60;99.90;;;;;;5087449;28;20479;-83
2022/11/08 12:43:08;;;;;;;5.67;2.33;;;16.70;99.90;;;;;;5092048;28;20479;-83
2022/11/08 12:45:55;;;;;;;6.13;3.53;;;16.60;99.90;;;;;;5085986;28;20491;-82
2022/11/08 12:48:32;;;;;;;4.57;2.00;;;16.60;99.90;;;;;;5096026;28;20515;-81
2022/11/08 12:51:08;;;;;;;3.53;1.80;;;16.70;99.90;;;;;;5102739;28;20458;-82
2022/11/08 12:53:54;;;;;;;6.33;2.43;;;16.70;99.90;;;;;;5089517;28;20471;-82
2022/11/08 12:56:24;;;;;;;3.53;1.80;;;16.80;99.90;;;;;;5081685;28;20473;-82
2022/11/08 12:58:54;;;;;;;4.73;2.10;;;16.80;99.90;;;;;;5081145;28;20463;-82
2022/11/08 13:01:23;;;;;;;1.83;1.70;;;16.80;99.90;;;;;;5080227;28;21043;-82
2022/11/08 13:04:25;;;;;;;2.07;1.90;;;16.90;99.90;;;;;;5093992;28;20508;-82
2022/11/08 13:06:59;;;;;;;3.73;1.60;;;16.90;99.90;;;;;;5074222;28;20871;-83
2022/11/08 13:09:40;;;;;;;6.27;2.10;;;16.90;99.90;;;;;;5087384;28;21017;-82
2022/11/08 13:12:19;;;;;;;9.50;6.70;;;16.90;99.90;;;;;;5084200;28;20494;-82
2022/11/08 13:14:48;;;;;;;4.70;3.97;;;16.90;99.90;;;;;;5081107;28;20479;-82
2022/11/08 13:17:23;;;;;;;4.10;2.60;;;16.90;99.90;;;;;;5082221;28;20550;-82
2022/11/08 13:20:04;;;;;;;3.27;1.80;;;16.90;99.90;;;;;;5093818;28;20853;-82
2022/11/08 13:23:06;;;;;;;4.67;2.30;;;16.90;99.90;;;;;;5080374;28;20593;-82
2022/11/08 13:25:36;;;;;;;3.00;1.47;;;16.90;99.90;;;;;;5011953;28;20456;-81